sensor_id;sensor_type;location;lat;lon;timestamp;P1;durP1;ratioP1;P2;durP2;ratioP2
3791;SDS011;1911;53.768;11.474;2024-03-08T00:00:40;15.57;;;9.43;;
3791;SDS011;1911;53.768;11.474;2024-03-08T00:03:07;17.25;;;7.63;;
3791;SDS011;1911;53.768;11.474;2024-03-08T00:05:35;18.58;;;9.43;;
3791;SDS011;1911;53.768;11.474;2024-03-08T00:08:03;17.55;;;8.55;;
3791;SDS011;1911;53.768;11.474;2024-03-08T00:10:30;21.42;;;9.43;;
3791;SDS011;1911;53.768;11.474;2024-03-08T00:12:55;16.73;;;8.47;;
3791;SDS011;1911;53.768;11.474;2024-03-08T00:15:22;16.27;;;7.82;;
3791;SDS011;1911;53.768;11.474;2024-03-08T00:17:48;23.27;;;9.20;;
3791;SDS011;1911;53.768;11.474;2024-03-08T00:20:14;16.00;;;8.40;;
3791;SDS011;1911;53.768;11.474;2024-03-08T00:22:40;17.63;;;9.27;;
3791;SDS011;1911;53.768;11.474;2024-03-08T00:25:06;16.07;;;9.27;;
3791;SDS011;1911;53.768;11.474;2024-03-08T00:27:37;18.63;;;8.88;;
3791;SDS011;1911;53.768;11.474;2024-03-08T00:30:03;17.17;;;8.40;;
3791;SDS011;1911;53.768;11.474;2024-03-08T00:32:30;17.05;;;8.98;;
3791;SDS011;1911;53.768;11.474;2024-03-08T00:34:56;23.23;;;9.98;;
3791;SDS011;1911;53.768;11.474;2024-03-08T00:37:22;17.03;;;8.63;;
3791;SDS011;1911;53.768;11.474;2024-03-08T00:39:48;15.40;;;8.20;;
3791;SDS011;1911;53.768;11.474;2024-03-08T00:42:15;16.13;;;8.43;;
3791;SDS011;1911;53.768;11.474;2024-03-08T00:44:41;18.85;;;8.10;;
3791;SDS011;1911;53.768;11.474;2024-03-08T00:47:06;18.60;;;9.20;;
3791;SDS011;1911;53.768;11.474;2024-03-08T00:49:32;15.60;;;9.00;;
3791;SDS011;1911;53.768;11.474;2024-03-08T00:51:58;21.47;;;9.37;;
3791;SDS011;1911;53.768;11.474;2024-03-08T00:54:23;21.33;;;10.00;;
3791;SDS011;1911;53.768;11.474;2024-03-08T00:56:49;16.77;;;9.30;;
3791;SDS011;1911;53.768;11.474;2024-03-08T00:59:15;19.52;;;10.23;;
3791;SDS011;1911;53.768;11.474;2024-03-08T01:01:41;23.03;;;10.37;;
3791;SDS011;1911;53.768;11.474;2024-03-08T01:04:06;19.20;;;9.63;;
3791;SDS011;1911;53.768;11.474;2024-03-08T01:06:33;19.95;;;9.23;;
3791;SDS011;1911;53.768;11.474;2024-03-08T01:08:59;17.88;;;9.32;;
3791;SDS011;1911;53.768;11.474;2024-03-08T01:11:24;17.67;;;9.50;;
3791;SDS011;1911;53.768;11.474;2024-03-08T01:13:50;18.30;;;9.70;;
3791;SDS011;1911;53.768;11.474;2024-03-08T01:16:16;24.93;;;11.47;;
3791;SDS011;1911;53.768;11.474;2024-03-08T01:18:46;19.23;;;10.57;;
3791;SDS011;1911;53.768;11.474;2024-03-08T01:21:12;20.10;;;9.97;;
3791;SDS011;1911;53.768;11.474;2024-03-08T01:23:37;16.03;;;10.20;;
3791;SDS011;1911;53.768;11.474;2024-03-08T01:26:03;24.33;;;10.40;;
3791;SDS011;1911;53.768;11.474;2024-03-08T01:28:29;28.20;;;10.50;;
3791;SDS011;1911;53.768;11.474;2024-03-08T01:30:55;20.20;;;10.43;;
3791;SDS011;1911;53.768;11.474;2024-03-08T01:33:24;23.43;;;10.80;;
3791;SDS011;1911;53.768;11.474;2024-03-08T01:35:54;20.80;;;10.57;;
3791;SDS011;1911;53.768;11.474;2024-03-08T01:38:20;43.13;;;12.93;;
3791;SDS011;1911;53.768;11.474;2024-03-08T01:40:48;24.58;;;11.40;;
3791;SDS011;1911;53.768;11.474;2024-03-08T01:43:16;30.08;;;12.82;;
3791;SDS011;1911;53.768;11.474;2024-03-08T01:45:45;22.92;;;11.80;;
3791;SDS011;1911;53.768;11.474;2024-03-08T01:48:10;30.53;;;13.67;;
3791;SDS011;1911;53.768;11.474;2024-03-08T01:50:37;25.92;;;12.05;;
3791;SDS011;1911;53.768;11.474;2024-03-08T01:53:04;30.23;;;13.20;;
3791;SDS011;1911;53.768;11.474;2024-03-08T01:55:30;30.35;;;12.50;;
3791;SDS011;1911;53.768;11.474;2024-03-08T01:57:56;27.83;;;13.90;;
3791;SDS011;1911;53.768;11.474;2024-03-08T02:00:38;27.23;;;13.73;;
3791;SDS011;1911;53.768;11.474;2024-03-08T02:06:51;36.15;;;13.70;;
3791;SDS011;1911;53.768;11.474;2024-03-08T02:09:17;36.70;;;14.67;;
3791;SDS011;1911;53.768;11.474;2024-03-08T02:11:42;29.73;;;13.87;;
3791;SDS011;1911;53.768;11.474;2024-03-08T02:14:08;32.97;;;14.33;;
3791;SDS011;1911;53.768;11.474;2024-03-08T02:16:34;33.28;;;15.20;;
3791;SDS011;1911;53.768;11.474;2024-03-08T02:19:00;28.70;;;13.97;;
3791;SDS011;1911;53.768;11.474;2024-03-08T02:21:25;27.23;;;13.60;;
3791;SDS011;1911;53.768;11.474;2024-03-08T02:23:51;33.30;;;14.97;;
3791;SDS011;1911;53.768;11.474;2024-03-08T02:26:17;33.63;;;14.67;;
3791;SDS011;1911;53.768;11.474;2024-03-08T02:28:43;36.37;;;14.90;;
3791;SDS011;1911;53.768;11.474;2024-03-08T02:31:09;32.33;;;15.27;;
3791;SDS011;1911;53.768;11.474;2024-03-08T02:33:35;29.43;;;14.50;;
3791;SDS011;1911;53.768;11.474;2024-03-08T02:36:01;30.30;;;14.90;;
3791;SDS011;1911;53.768;11.474;2024-03-08T02:38:27;31.50;;;13.93;;
3791;SDS011;1911;53.768;11.474;2024-03-08T02:40:53;31.30;;;15.40;;
3791;SDS011;1911;53.768;11.474;2024-03-08T02:43:20;35.03;;;15.60;;
3791;SDS011;1911;53.768;11.474;2024-03-08T02:45:49;38.08;;;15.15;;
3791;SDS011;1911;53.768;11.474;2024-03-08T02:48:15;40.80;;;15.98;;
3791;SDS011;1911;53.768;11.474;2024-03-08T02:50:41;35.53;;;16.03;;
3791;SDS011;1911;53.768;11.474;2024-03-08T02:53:10;28.58;;;15.20;;
3791;SDS011;1911;53.768;11.474;2024-03-08T02:55:36;36.40;;;14.68;;
3791;SDS011;1911;53.768;11.474;2024-03-08T02:58:03;33.40;;;15.63;;
3791;SDS011;1911;53.768;11.474;2024-03-08T03:00:29;37.47;;;17.60;;
3791;SDS011;1911;53.768;11.474;2024-03-08T03:02:56;27.95;;;13.98;;
3791;SDS011;1911;53.768;11.474;2024-03-08T03:05:22;31.33;;;15.52;;
3791;SDS011;1911;53.768;11.474;2024-03-08T03:07:49;40.22;;;14.90;;
3791;SDS011;1911;53.768;11.474;2024-03-08T03:10:18;36.58;;;15.13;;
3791;SDS011;1911;53.768;11.474;2024-03-08T03:12:44;31.17;;;14.20;;
3791;SDS011;1911;53.768;11.474;2024-03-08T03:15:16;32.00;;;15.55;;
3791;SDS011;1911;53.768;11.474;2024-03-08T03:17:46;30.40;;;14.55;;
3791;SDS011;1911;53.768;11.474;2024-03-08T03:20:12;32.67;;;16.23;;
3791;SDS011;1911;53.768;11.474;2024-03-08T03:22:39;33.65;;;16.20;;
3791;SDS011;1911;53.768;11.474;2024-03-08T03:25:06;35.78;;;16.77;;
3791;SDS011;1911;53.768;11.474;2024-03-08T03:27:33;32.80;;;13.90;;
3791;SDS011;1911;53.768;11.474;2024-03-08T03:29:58;38.30;;;16.07;;
3791;SDS011;1911;53.768;11.474;2024-03-08T03:32:44;34.13;;;14.98;;
3791;SDS011;1911;53.768;11.474;2024-03-08T03:35:12;33.85;;;15.25;;
3791;SDS011;1911;53.768;11.474;2024-03-08T03:37:38;26.23;;;13.20;;
3791;SDS011;1911;53.768;11.474;2024-03-08T03:40:05;30.08;;;16.05;;
3791;SDS011;1911;53.768;11.474;2024-03-08T03:42:33;32.88;;;15.65;;
3791;SDS011;1911;53.768;11.474;2024-03-08T03:44:59;36.27;;;15.57;;
3791;SDS011;1911;53.768;11.474;2024-03-08T03:47:24;40.87;;;15.50;;
3791;SDS011;1911;53.768;11.474;2024-03-08T03:49:51;29.73;;;14.70;;
3791;SDS011;1911;53.768;11.474;2024-03-08T03:52:19;32.05;;;15.27;;
3791;SDS011;1911;53.768;11.474;2024-03-08T03:54:44;26.20;;;13.37;;
3791;SDS011;1911;53.768;11.474;2024-03-08T03:57:10;29.07;;;12.50;;
3791;SDS011;1911;53.768;11.474;2024-03-08T03:59:37;30.75;;;14.88;;
3791;SDS011;1911;53.768;11.474;2024-03-08T04:02:02;30.83;;;13.50;;
3791;SDS011;1911;53.768;11.474;2024-03-08T04:04:28;33.47;;;14.50;;
3791;SDS011;1911;53.768;11.474;2024-03-08T04:06:54;30.87;;;14.50;;
3791;SDS011;1911;53.768;11.474;2024-03-08T04:09:20;27.10;;;12.17;;
3791;SDS011;1911;53.768;11.474;2024-03-08T04:11:47;33.33;;;14.95;;
3791;SDS011;1911;53.768;11.474;2024-03-08T04:14:13;34.85;;;13.73;;
3791;SDS011;1911;53.768;11.474;2024-03-08T04:16:39;28.50;;;14.67;;
3791;SDS011;1911;53.768;11.474;2024-03-08T04:19:04;32.47;;;14.17;;
3791;SDS011;1911;53.768;11.474;2024-03-08T04:21:30;37.73;;;16.33;;
3791;SDS011;1911;53.768;11.474;2024-03-08T04:23:55;30.97;;;15.10;;
3791;SDS011;1911;53.768;11.474;2024-03-08T04:26:21;29.83;;;12.90;;
3791;SDS011;1911;53.768;11.474;2024-03-08T04:28:47;32.37;;;13.67;;
3791;SDS011;1911;53.768;11.474;2024-03-08T04:31:12;29.67;;;13.07;;
3791;SDS011;1911;53.768;11.474;2024-03-08T04:33:38;29.23;;;13.50;;
3791;SDS011;1911;53.768;11.474;2024-03-08T04:36:04;36.97;;;13.27;;
3791;SDS011;1911;53.768;11.474;2024-03-08T04:38:30;29.00;;;14.63;;
3791;SDS011;1911;53.768;11.474;2024-03-08T04:40:56;42.27;;;13.77;;
3791;SDS011;1911;53.768;11.474;2024-03-08T04:43:22;28.33;;;13.15;;
3791;SDS011;1911;53.768;11.474;2024-03-08T04:45:51;28.02;;;12.60;;
3791;SDS011;1911;53.768;11.474;2024-03-08T04:48:18;29.80;;;12.45;;
3791;SDS011;1911;53.768;11.474;2024-03-08T04:50:45;28.13;;;12.68;;
3791;SDS011;1911;53.768;11.474;2024-03-08T04:53:11;31.00;;;13.27;;
3791;SDS011;1911;53.768;11.474;2024-03-08T04:55:36;37.53;;;15.17;;
3791;SDS011;1911;53.768;11.474;2024-03-08T04:58:02;36.07;;;14.40;;
3791;SDS011;1911;53.768;11.474;2024-03-08T05:00:30;33.38;;;14.30;;
3791;SDS011;1911;53.768;11.474;2024-03-08T05:02:57;42.40;;;14.13;;
3791;SDS011;1911;53.768;11.474;2024-03-08T05:05:23;32.17;;;13.43;;
3791;SDS011;1911;53.768;11.474;2024-03-08T05:07:49;30.20;;;12.15;;
3791;SDS011;1911;53.768;11.474;2024-03-08T05:10:15;26.73;;;14.17;;
3791;SDS011;1911;53.768;11.474;2024-03-08T05:12:42;35.28;;;14.27;;
3791;SDS011;1911;53.768;11.474;2024-03-08T05:15:08;35.22;;;15.02;;
3791;SDS011;1911;53.768;11.474;2024-03-08T05:17:34;33.87;;;14.80;;
3791;SDS011;1911;53.768;11.474;2024-03-08T05:19:59;32.57;;;16.60;;
3791;SDS011;1911;53.768;11.474;2024-03-08T05:22:25;34.67;;;14.53;;
3791;SDS011;1911;53.768;11.474;2024-03-08T05:24:51;38.40;;;16.77;;
3791;SDS011;1911;53.768;11.474;2024-03-08T05:27:16;35.00;;;15.60;;
3791;SDS011;1911;53.768;11.474;2024-03-08T05:29:42;40.93;;;15.70;;
3791;SDS011;1911;53.768;11.474;2024-03-08T05:32:08;36.23;;;17.27;;
3791;SDS011;1911;53.768;11.474;2024-03-08T05:34:34;39.83;;;15.85;;
3791;SDS011;1911;53.768;11.474;2024-03-08T05:37:00;37.07;;;14.10;;
3791;SDS011;1911;53.768;11.474;2024-03-08T05:39:26;39.63;;;15.68;;
3791;SDS011;1911;53.768;11.474;2024-03-08T05:41:52;40.00;;;14.57;;
3791;SDS011;1911;53.768;11.474;2024-03-08T05:44:17;38.90;;;15.33;;
3791;SDS011;1911;53.768;11.474;2024-03-08T05:46:43;31.10;;;14.97;;
3791;SDS011;1911;53.768;11.474;2024-03-08T05:49:09;37.03;;;15.90;;
3791;SDS011;1911;53.768;11.474;2024-03-08T05:51:35;32.50;;;16.03;;
3791;SDS011;1911;53.768;11.474;2024-03-08T05:56:28;32.47;;;13.90;;
3791;SDS011;1911;53.768;11.474;2024-03-08T05:58:54;38.78;;;14.38;;
3791;SDS011;1911;53.768;11.474;2024-03-08T06:01:20;33.57;;;14.93;;
3791;SDS011;1911;53.768;11.474;2024-03-08T06:03:46;32.10;;;15.52;;
3791;SDS011;1911;53.768;11.474;2024-03-08T06:06:14;39.50;;;17.38;;
3791;SDS011;1911;53.768;11.474;2024-03-08T06:08:43;37.15;;;15.00;;
3791;SDS011;1911;53.768;11.474;2024-03-08T06:11:09;33.93;;;14.20;;
3791;SDS011;1911;53.768;11.474;2024-03-08T06:13:35;38.38;;;16.85;;
3791;SDS011;1911;53.768;11.474;2024-03-08T06:16:01;36.50;;;15.20;;
3791;SDS011;1911;53.768;11.474;2024-03-08T06:18:32;38.05;;;17.38;;
3791;SDS011;1911;53.768;11.474;2024-03-08T06:21:07;31.38;;;14.52;;
3791;SDS011;1911;53.768;11.474;2024-03-08T06:44:22;35.20;;;15.20;;
3791;SDS011;1911;53.768;11.474;2024-03-08T06:46:48;30.83;;;14.03;;
3791;SDS011;1911;53.768;11.474;2024-03-08T06:49:13;28.30;;;14.70;;
3791;SDS011;1911;53.768;11.474;2024-03-08T06:51:40;36.78;;;15.60;;
3791;SDS011;1911;53.768;11.474;2024-03-08T06:54:06;34.33;;;14.50;;
3791;SDS011;1911;53.768;11.474;2024-03-08T06:56:34;34.22;;;14.48;;
3791;SDS011;1911;53.768;11.474;2024-03-08T06:58:59;34.00;;;14.30;;
3791;SDS011;1911;53.768;11.474;2024-03-08T07:01:28;34.85;;;15.45;;
3791;SDS011;1911;53.768;11.474;2024-03-08T07:03:57;29.73;;;13.73;;
3791;SDS011;1911;53.768;11.474;2024-03-08T07:06:22;30.10;;;13.80;;
3791;SDS011;1911;53.768;11.474;2024-03-08T07:08:48;34.67;;;16.30;;
3791;SDS011;1911;53.768;11.474;2024-03-08T07:11:14;31.90;;;14.97;;
3791;SDS011;1911;53.768;11.474;2024-03-08T07:13:43;36.58;;;15.43;;
3791;SDS011;1911;53.768;11.474;2024-03-08T07:16:11;27.93;;;12.57;;
3791;SDS011;1911;53.768;11.474;2024-03-08T07:18:37;40.13;;;16.93;;
3791;SDS011;1911;53.768;11.474;2024-03-08T07:21:08;37.35;;;15.57;;
3791;SDS011;1911;53.768;11.474;2024-03-08T07:23:35;31.90;;;15.65;;
3791;SDS011;1911;53.768;11.474;2024-03-08T07:26:27;33.80;;;15.55;;
3791;SDS011;1911;53.768;11.474;2024-03-08T07:28:53;30.50;;;14.03;;
3791;SDS011;1911;53.768;11.474;2024-03-08T07:31:20;35.78;;;14.95;;
3791;SDS011;1911;53.768;11.474;2024-03-08T07:33:59;26.70;;;13.60;;
3791;SDS011;1911;53.768;11.474;2024-03-08T07:36:25;27.30;;;15.10;;
3791;SDS011;1911;53.768;11.474;2024-03-08T07:38:51;33.17;;;15.40;;
3791;SDS011;1911;53.768;11.474;2024-03-08T07:41:16;33.10;;;15.60;;
3791;SDS011;1911;53.768;11.474;2024-03-08T07:43:42;30.93;;;14.50;;
3791;SDS011;1911;53.768;11.474;2024-03-08T07:46:09;31.70;;;14.67;;
3791;SDS011;1911;53.768;11.474;2024-03-08T07:48:35;32.78;;;15.48;;
3791;SDS011;1911;53.768;11.474;2024-03-08T07:51:01;29.10;;;13.57;;
3791;SDS011;1911;53.768;11.474;2024-03-08T07:53:28;36.97;;;15.02;;
3791;SDS011;1911;53.768;11.474;2024-03-08T07:55:53;37.53;;;16.03;;
3791;SDS011;1911;53.768;11.474;2024-03-08T07:58:19;31.20;;;15.17;;
3791;SDS011;1911;53.768;11.474;2024-03-08T08:00:45;31.23;;;16.30;;
3791;SDS011;1911;53.768;11.474;2024-03-08T08:03:11;30.33;;;14.73;;
3791;SDS011;1911;53.768;11.474;2024-03-08T08:05:37;32.50;;;15.23;;
3791;SDS011;1911;53.768;11.474;2024-03-08T08:08:04;29.40;;;14.77;;
3791;SDS011;1911;53.768;11.474;2024-03-08T08:10:32;31.73;;;13.60;;
3791;SDS011;1911;53.768;11.474;2024-03-08T08:12:58;30.40;;;14.65;;
3791;SDS011;1911;53.768;11.474;2024-03-08T08:15:24;31.57;;;15.37;;
3791;SDS011;1911;53.768;11.474;2024-03-08T08:17:49;32.20;;;14.73;;
3791;SDS011;1911;53.768;11.474;2024-03-08T08:20:16;34.53;;;15.67;;
3791;SDS011;1911;53.768;11.474;2024-03-08T08:22:43;37.27;;;16.17;;
3791;SDS011;1911;53.768;11.474;2024-03-08T08:25:09;36.83;;;18.13;;
3791;SDS011;1911;53.768;11.474;2024-03-08T08:27:38;34.40;;;18.63;;
3791;SDS011;1911;53.768;11.474;2024-03-08T08:30:10;34.23;;;17.30;;
3791;SDS011;1911;53.768;11.474;2024-03-08T08:32:36;37.97;;;20.70;;
3791;SDS011;1911;53.768;11.474;2024-03-08T08:35:02;31.53;;;17.13;;
3791;SDS011;1911;53.768;11.474;2024-03-08T08:37:29;29.57;;;15.13;;
3791;SDS011;1911;53.768;11.474;2024-03-08T08:39:56;34.30;;;17.00;;
3791;SDS011;1911;53.768;11.474;2024-03-08T08:42:22;31.80;;;16.70;;
3791;SDS011;1911;53.768;11.474;2024-03-08T08:44:48;30.87;;;17.33;;
3791;SDS011;1911;53.768;11.474;2024-03-08T08:47:15;34.60;;;16.27;;
3791;SDS011;1911;53.768;11.474;2024-03-08T08:49:43;33.37;;;17.20;;
3791;SDS011;1911;53.768;11.474;2024-03-08T08:52:12;35.90;;;17.13;;
3791;SDS011;1911;53.768;11.474;2024-03-08T08:54:38;31.53;;;17.20;;
3791;SDS011;1911;53.768;11.474;2024-03-08T08:57:03;34.53;;;17.57;;
3791;SDS011;1911;53.768;11.474;2024-03-08T08:59:33;32.03;;;17.43;;
3791;SDS011;1911;53.768;11.474;2024-03-08T09:02:01;36.30;;;18.57;;
3791;SDS011;1911;53.768;11.474;2024-03-08T09:04:29;37.97;;;18.57;;
3791;SDS011;1911;53.768;11.474;2024-03-08T09:06:56;39.63;;;18.80;;
3791;SDS011;1911;53.768;11.474;2024-03-08T09:09:22;36.07;;;18.47;;
3791;SDS011;1911;53.768;11.474;2024-03-08T09:11:47;40.70;;;20.57;;
3791;SDS011;1911;53.768;11.474;2024-03-08T09:14:14;43.00;;;18.73;;
3791;SDS011;1911;53.768;11.474;2024-03-08T09:16:40;33.93;;;17.60;;
3791;SDS011;1911;53.768;11.474;2024-03-08T09:19:05;32.70;;;18.17;;
3791;SDS011;1911;53.768;11.474;2024-03-08T09:21:32;37.57;;;18.47;;
3791;SDS011;1911;53.768;11.474;2024-03-08T09:23:58;36.10;;;16.60;;
3791;SDS011;1911;53.768;11.474;2024-03-08T09:26:23;35.80;;;18.13;;
3791;SDS011;1911;53.768;11.474;2024-03-08T09:28:49;36.20;;;18.73;;
3791;SDS011;1911;53.768;11.474;2024-03-08T09:31:14;33.93;;;17.87;;
3791;SDS011;1911;53.768;11.474;2024-03-08T09:33:41;34.13;;;18.33;;
3791;SDS011;1911;53.768;11.474;2024-03-08T09:36:07;36.10;;;17.93;;
3791;SDS011;1911;53.768;11.474;2024-03-08T09:38:33;31.97;;;17.60;;
3791;SDS011;1911;53.768;11.474;2024-03-08T09:41:01;30.43;;;16.27;;
3791;SDS011;1911;53.768;11.474;2024-03-08T09:43:29;33.97;;;16.17;;
3791;SDS011;1911;53.768;11.474;2024-03-08T09:45:55;33.23;;;16.63;;
3791;SDS011;1911;53.768;11.474;2024-03-08T09:48:22;34.13;;;18.10;;
3791;SDS011;1911;53.768;11.474;2024-03-08T09:50:48;34.00;;;17.47;;
3791;SDS011;1911;53.768;11.474;2024-03-08T09:53:14;34.70;;;17.53;;
3791;SDS011;1911;53.768;11.474;2024-03-08T09:55:40;37.33;;;17.80;;
3791;SDS011;1911;53.768;11.474;2024-03-08T09:58:10;32.57;;;17.60;;
3791;SDS011;1911;53.768;11.474;2024-03-08T10:00:55;32.33;;;17.33;;
3791;SDS011;1911;53.768;11.474;2024-03-08T10:03:23;36.37;;;19.37;;
3791;SDS011;1911;53.768;11.474;2024-03-08T10:05:52;36.80;;;18.77;;
3791;SDS011;1911;53.768;11.474;2024-03-08T10:08:21;44.90;;;21.77;;
3791;SDS011;1911;53.768;11.474;2024-03-08T10:10:47;37.30;;;19.20;;
3791;SDS011;1911;53.768;11.474;2024-03-08T10:13:14;32.40;;;18.27;;
3791;SDS011;1911;53.768;11.474;2024-03-08T10:15:41;32.87;;;17.87;;
3791;SDS011;1911;53.768;11.474;2024-03-08T10:18:09;32.80;;;16.83;;
3791;SDS011;1911;53.768;11.474;2024-03-08T10:20:35;29.13;;;16.80;;
3791;SDS011;1911;53.768;11.474;2024-03-08T10:23:01;41.27;;;19.23;;
3791;SDS011;1911;53.768;11.474;2024-03-08T10:25:29;37.83;;;18.73;;
3791;SDS011;1911;53.768;11.474;2024-03-08T10:27:59;33.20;;;17.43;;
3791;SDS011;1911;53.768;11.474;2024-03-08T10:30:24;38.00;;;17.73;;
3791;SDS011;1911;53.768;11.474;2024-03-08T10:32:50;37.73;;;19.37;;
3791;SDS011;1911;53.768;11.474;2024-03-08T10:35:16;34.30;;;16.10;;
3791;SDS011;1911;53.768;11.474;2024-03-08T10:40:22;38.50;;;18.33;;
3791;SDS011;1911;53.768;11.474;2024-03-08T10:42:53;29.83;;;15.87;;
3791;SDS011;1911;53.768;11.474;2024-03-08T10:45:23;30.10;;;17.90;;
3791;SDS011;1911;53.768;11.474;2024-03-08T10:48:21;32.67;;;14.23;;
3791;SDS011;1911;53.768;11.474;2024-03-08T10:50:53;32.03;;;18.00;;
3791;SDS011;1911;53.768;11.474;2024-03-08T10:53:19;37.30;;;17.90;;
3791;SDS011;1911;53.768;11.474;2024-03-08T10:55:47;30.80;;;17.80;;
3791;SDS011;1911;53.768;11.474;2024-03-08T10:58:18;35.70;;;16.87;;
3791;SDS011;1911;53.768;11.474;2024-03-08T11:00:48;28.17;;;15.67;;
3791;SDS011;1911;53.768;11.474;2024-03-08T11:06:06;32.10;;;15.50;;
3791;SDS011;1911;53.768;11.474;2024-03-08T11:08:35;33.70;;;16.47;;
3791;SDS011;1911;53.768;11.474;2024-03-08T11:11:01;24.13;;;13.53;;
3791;SDS011;1911;53.768;11.474;2024-03-08T11:13:37;27.53;;;14.07;;
3791;SDS011;1911;53.768;11.474;2024-03-08T11:16:09;29.97;;;16.07;;
3791;SDS011;1911;53.768;11.474;2024-03-08T11:18:36;36.00;;;16.47;;
3791;SDS011;1911;53.768;11.474;2024-03-08T11:21:03;31.67;;;16.60;;
3791;SDS011;1911;53.768;11.474;2024-03-08T11:23:38;27.17;;;14.57;;
3791;SDS011;1911;53.768;11.474;2024-03-08T11:26:20;31.40;;;15.90;;
3791;SDS011;1911;53.768;11.474;2024-03-08T11:28:48;29.70;;;15.20;;
3791;SDS011;1911;53.768;11.474;2024-03-08T11:31:23;30.60;;;16.57;;
3791;SDS011;1911;53.768;11.474;2024-03-08T11:33:51;27.57;;;13.87;;
3791;SDS011;1911;53.768;11.474;2024-03-08T11:38:50;21.97;;;13.30;;
3791;SDS011;1911;53.768;11.474;2024-03-08T11:41:21;22.10;;;13.53;;
3791;SDS011;1911;53.768;11.474;2024-03-08T11:43:49;27.93;;;15.00;;
3791;SDS011;1911;53.768;11.474;2024-03-08T11:46:26;24.27;;;12.20;;
3791;SDS011;1911;53.768;11.474;2024-03-08T11:48:53;25.90;;;14.27;;
3791;SDS011;1911;53.768;11.474;2024-03-08T11:51:21;22.13;;;12.33;;
3791;SDS011;1911;53.768;11.474;2024-03-08T11:53:48;26.30;;;13.50;;
3791;SDS011;1911;53.768;11.474;2024-03-08T11:56:15;21.70;;;12.83;;
3791;SDS011;1911;53.768;11.474;2024-03-08T11:58:41;26.50;;;14.93;;
3791;SDS011;1911;53.768;11.474;2024-03-08T12:01:17;20.70;;;12.10;;
3791;SDS011;1911;53.768;11.474;2024-03-08T12:03:43;24.27;;;13.73;;
3791;SDS011;1911;53.768;11.474;2024-03-08T12:06:09;36.47;;;12.97;;
3791;SDS011;1911;53.768;11.474;2024-03-08T12:08:35;23.07;;;13.20;;
3791;SDS011;1911;53.768;11.474;2024-03-08T12:11:02;23.90;;;14.17;;
3791;SDS011;1911;53.768;11.474;2024-03-08T12:13:30;28.70;;;13.87;;
3791;SDS011;1911;53.768;11.474;2024-03-08T12:15:57;24.37;;;14.07;;
3791;SDS011;1911;53.768;11.474;2024-03-08T12:18:24;21.27;;;12.27;;
3791;SDS011;1911;53.768;11.474;2024-03-08T12:20:51;24.70;;;14.87;;
3791;SDS011;1911;53.768;11.474;2024-03-08T12:23:17;22.90;;;14.13;;
3791;SDS011;1911;53.768;11.474;2024-03-08T12:25:43;21.67;;;13.47;;
3791;SDS011;1911;53.768;11.474;2024-03-08T12:28:09;24.07;;;13.10;;
3791;SDS011;1911;53.768;11.474;2024-03-08T12:31:00;26.83;;;14.33;;
3791;SDS011;1911;53.768;11.474;2024-03-08T12:33:24;22.33;;;11.23;;
3791;SDS011;1911;53.768;11.474;2024-03-08T12:35:53;24.13;;;12.40;;
3791;SDS011;1911;53.768;11.474;2024-03-08T12:38:20;16.40;;;11.40;;
3791;SDS011;1911;53.768;11.474;2024-03-08T12:40:56;21.57;;;14.33;;
3791;SDS011;1911;53.768;11.474;2024-03-08T12:43:23;28.10;;;12.80;;
3791;SDS011;1911;53.768;11.474;2024-03-08T12:45:49;24.07;;;13.07;;
3791;SDS011;1911;53.768;11.474;2024-03-08T12:48:15;23.00;;;13.13;;
3791;SDS011;1911;53.768;11.474;2024-03-08T12:50:41;19.53;;;11.53;;
3791;SDS011;1911;53.768;11.474;2024-03-08T12:53:10;18.37;;;11.00;;
3791;SDS011;1911;53.768;11.474;2024-03-08T12:55:36;16.33;;;8.63;;
3791;SDS011;1911;53.768;11.474;2024-03-08T12:58:01;19.73;;;11.50;;
3791;SDS011;1911;53.768;11.474;2024-03-08T13:00:27;22.50;;;11.27;;
3791;SDS011;1911;53.768;11.474;2024-03-08T13:02:53;16.70;;;9.60;;
3791;SDS011;1911;53.768;11.474;2024-03-08T13:05:20;21.10;;;11.53;;
3791;SDS011;1911;53.768;11.474;2024-03-08T13:07:46;18.03;;;11.60;;
3791;SDS011;1911;53.768;11.474;2024-03-08T13:10:12;18.20;;;11.80;;
3791;SDS011;1911;53.768;11.474;2024-03-08T13:12:44;19.63;;;11.10;;
3791;SDS011;1911;53.768;11.474;2024-03-08T13:15:10;18.00;;;10.30;;
3791;SDS011;1911;53.768;11.474;2024-03-08T13:17:40;18.53;;;11.67;;
3791;SDS011;1911;53.768;11.474;2024-03-08T13:20:07;18.43;;;11.13;;
3791;SDS011;1911;53.768;11.474;2024-03-08T13:22:33;23.00;;;12.50;;
3791;SDS011;1911;53.768;11.474;2024-03-08T13:24:59;23.97;;;12.47;;
3791;SDS011;1911;53.768;11.474;2024-03-08T13:27:26;26.27;;;13.27;;
3791;SDS011;1911;53.768;11.474;2024-03-08T13:29:53;22.00;;;11.13;;
3791;SDS011;1911;53.768;11.474;2024-03-08T13:32:18;21.30;;;12.20;;
3791;SDS011;1911;53.768;11.474;2024-03-08T13:34:45;22.77;;;14.03;;
3791;SDS011;1911;53.768;11.474;2024-03-08T13:37:16;19.47;;;12.03;;
3791;SDS011;1911;53.768;11.474;2024-03-08T13:39:41;25.30;;;12.33;;
3791;SDS011;1911;53.768;11.474;2024-03-08T13:42:11;21.53;;;11.50;;
3791;SDS011;1911;53.768;11.474;2024-03-08T13:44:47;20.40;;;12.00;;
3791;SDS011;1911;53.768;11.474;2024-03-08T13:47:15;17.63;;;10.20;;
3791;SDS011;1911;53.768;11.474;2024-03-08T13:49:42;20.30;;;12.40;;
3791;SDS011;1911;53.768;11.474;2024-03-08T13:52:08;20.27;;;11.47;;
3791;SDS011;1911;53.768;11.474;2024-03-08T13:54:35;17.40;;;11.20;;
3791;SDS011;1911;53.768;11.474;2024-03-08T13:57:01;25.80;;;13.10;;
3791;SDS011;1911;53.768;11.474;2024-03-08T13:59:32;22.83;;;11.73;;
3791;SDS011;1911;53.768;11.474;2024-03-08T14:02:00;24.77;;;10.70;;
3791;SDS011;1911;53.768;11.474;2024-03-08T14:04:27;21.73;;;13.40;;
3791;SDS011;1911;53.768;11.474;2024-03-08T14:06:56;22.90;;;13.33;;
3791;SDS011;1911;53.768;11.474;2024-03-08T14:09:24;19.60;;;12.23;;
3791;SDS011;1911;53.768;11.474;2024-03-08T14:11:54;22.87;;;12.87;;
3791;SDS011;1911;53.768;11.474;2024-03-08T14:14:20;22.83;;;14.20;;
3791;SDS011;1911;53.768;11.474;2024-03-08T14:16:48;22.20;;;11.77;;
3791;SDS011;1911;53.768;11.474;2024-03-08T14:19:17;23.90;;;12.57;;
3791;SDS011;1911;53.768;11.474;2024-03-08T14:21:44;26.50;;;12.63;;
3791;SDS011;1911;53.768;11.474;2024-03-08T14:24:09;21.37;;;13.07;;
3791;SDS011;1911;53.768;11.474;2024-03-08T14:26:35;21.23;;;12.07;;
3791;SDS011;1911;53.768;11.474;2024-03-08T14:29:03;21.63;;;12.60;;
3791;SDS011;1911;53.768;11.474;2024-03-08T14:31:30;23.60;;;11.93;;
3791;SDS011;1911;53.768;11.474;2024-03-08T14:33:56;21.57;;;11.77;;
3791;SDS011;1911;53.768;11.474;2024-03-08T14:36:23;21.33;;;13.13;;
3791;SDS011;1911;53.768;11.474;2024-03-08T14:38:50;22.67;;;12.80;;
3791;SDS011;1911;53.768;11.474;2024-03-08T14:41:17;24.60;;;13.70;;
3791;SDS011;1911;53.768;11.474;2024-03-08T14:43:43;22.50;;;12.50;;
3791;SDS011;1911;53.768;11.474;2024-03-08T14:46:10;20.60;;;12.50;;
3791;SDS011;1911;53.768;11.474;2024-03-08T14:48:42;24.07;;;14.37;;
3791;SDS011;1911;53.768;11.474;2024-03-08T14:51:09;24.10;;;12.73;;
3791;SDS011;1911;53.768;11.474;2024-03-08T14:53:36;28.53;;;14.70;;
3791;SDS011;1911;53.768;11.474;2024-03-08T14:56:06;21.53;;;12.83;;
3791;SDS011;1911;53.768;11.474;2024-03-08T14:58:34;24.10;;;13.93;;
3791;SDS011;1911;53.768;11.474;2024-03-08T15:01:00;23.33;;;13.53;;
3791;SDS011;1911;53.768;11.474;2024-03-08T15:03:26;23.60;;;13.73;;
3791;SDS011;1911;53.768;11.474;2024-03-08T15:05:53;19.30;;;12.37;;
3791;SDS011;1911;53.768;11.474;2024-03-08T15:08:20;19.77;;;12.07;;
3791;SDS011;1911;53.768;11.474;2024-03-08T15:10:48;19.63;;;12.57;;